Impacts TAF Board
For situational awareness. Not to be used for flight planning purposes.
IDs:

KHQM - Hoquiam/Bowerman Arp, WA, US

Issued at 1135 UTC 07 Jul 2020
Updated at 1348 UTC 07 Jul 2020
Potential Impact None Slight Moderate High
Time1253Z 07/14Z 07/15Z 07/16Z 07/17Z 07/18Z 07/19Z 07/20Z 07/21Z 07/22Z 07/23Z 08/00Z 08/01Z 08/02Z>>
Type OBS PRVL
  [TEMP]  
PRVL
  [TEMP]  
PRVL PRVL PRVL PRVL PRVL PRVL PRVL PRVL PRVL PRVL PRVL
VIS 10 >6
  [4]  
>6
  [4]  
>6 >6 >6 >6 >6 >6 >6 >6 >6 >6 >6
CIG 22 15
  [8]  
15
  [8]  
15 15 15 15 25 25 25 25 25 25 25
Cover OVC OVC
  [OVC]  
OVC
  [OVC]  
OVC OVC OVC OVC OVC OVC OVC OVC OVC OVC OVC
FltCat MVFR MVFR
  [IFR]  
MVFR
  [IFR]  
MVFR MVFR MVFR MVFR MVFR MVFR MVFR MVFR MVFR MVFR MVFR
WX -- -SHRA
  [-SHRA]  
-SHRA
  [-SHRA]  
-SHRA -SHRA -SHRA -SHRA -SHRA -SHRA -SHRA -SHRA -SHRA -SHRA -SHRA
WDir 220 300
[300]
300
[300]
300 300 300 300 260 260 260 260 260 260 260
WSpd 3 10
  [10]  
10
  [10]  
10 10 10 10 8 8 8 8 8 8 8
WGst -- --
  [--]  
--
  [--]  
-- -- -- -- -- -- -- -- -- -- --
Raw TAF
KHQM 071135Z 0712/0812 30010KT P6SM -SHRA SCT008 BKN015 OVC025
  TEMPO 0712/0716 4SM -SHRA BKN008 OVC015
  FM072000 26008KT P6SM -SHRA SCT015 BKN025 OVC040
  FM080700 26008KT P6SM OVC015


Raw METAR
KHQM 071253Z AUTO 22003KT 10SM BKN022 OVC029 13/12 A3006 RMK AO2 SLP183 T01280122
KHQM 071153Z AUTO 32004KT 8SM BKN019 OVC027 13/12 A3006 RMK AO2 RAE20 SLP182 P0001 60006 70008 T01280117 10144 20128 51003
KHQM 071117Z AUTO 32006KT 6SM -RA BR SCT008 BKN015 OVC022 13/12 A3006 RMK AO2 P0001 T01280117
KHQM 071110Z AUTO 31005KT 4SM -RA BR BKN007 BKN017 OVC022 13/12 A3006 RMK AO2 P0001 T01280117
KHQM 071053Z AUTO 29007KT 4SM -RA BR FEW007 BKN012 OVC024 13/12 A3006 RMK AO2 RAB33 SLP182 P0004 T01280117
KHQM 071037Z AUTO 23011KT 5SM -RA BR SCT013 BKN018 OVC050 13/12 A3005 RMK AO2 RAB33 P0001 T01330117

METAR Board
Radar Display
Forecast Discussion
For situational awareness. Not to be used for flight planning purposes.